sensor_id;sensor_type;location;lat;lon;timestamp;P1;durP1;ratioP1;P2;durP2;ratioP2
31482;SDS011;18103;52.246;8.052;2023-03-01T00:00:52;8.30;;;3.80;;
31482;SDS011;18103;52.246;8.052;2023-03-01T00:03:18;6.53;;;3.10;;
31482;SDS011;18103;52.246;8.052;2023-03-01T00:05:44;7.80;;;3.50;;
31482;SDS011;18103;52.246;8.052;2023-03-01T00:08:10;7.68;;;3.00;;
31482;SDS011;18103;52.246;8.052;2023-03-01T00:10:36;10.20;;;3.80;;
31482;SDS011;18103;52.246;8.052;2023-03-01T00:13:01;9.87;;;4.20;;
31482;SDS011;18103;52.246;8.052;2023-03-01T00:15:27;6.80;;;4.40;;
31482;SDS011;18103;52.246;8.052;2023-03-01T00:17:52;9.87;;;4.67;;
31482;SDS011;18103;52.246;8.052;2023-03-01T00:20:18;14.20;;;4.37;;
31482;SDS011;18103;52.246;8.052;2023-03-01T00:22:43;8.30;;;4.80;;
31482;SDS011;18103;52.246;8.052;2023-03-01T00:25:08;8.40;;;4.57;;
31482;SDS011;18103;52.246;8.052;2023-03-01T00:27:34;10.70;;;4.00;;
31482;SDS011;18103;52.246;8.052;2023-03-01T00:29:59;10.07;;;5.33;;
31482;SDS011;18103;52.246;8.052;2023-03-01T00:32:25;9.67;;;4.80;;
31482;SDS011;18103;52.246;8.052;2023-03-01T00:34:50;10.77;;;5.67;;
31482;SDS011;18103;52.246;8.052;2023-03-01T00:37:24;6.63;;;3.50;;
31482;SDS011;18103;52.246;8.052;2023-03-01T00:39:50;8.63;;;4.80;;
31482;SDS011;18103;52.246;8.052;2023-03-01T00:42:16;9.30;;;4.90;;
31482;SDS011;18103;52.246;8.052;2023-03-01T00:44:41;8.85;;;3.97;;
31482;SDS011;18103;52.246;8.052;2023-03-01T00:47:07;8.30;;;3.77;;
31482;SDS011;18103;52.246;8.052;2023-03-01T00:49:33;9.83;;;5.03;;
31482;SDS011;18103;52.246;8.052;2023-03-01T00:51:59;7.17;;;4.57;;
31482;SDS011;18103;52.246;8.052;2023-03-01T00:54:24;10.17;;;4.67;;
31482;SDS011;18103;52.246;8.052;2023-03-01T00:56:50;7.23;;;3.83;;
31482;SDS011;18103;52.246;8.052;2023-03-01T00:59:15;15.27;;;5.27;;
31482;SDS011;18103;52.246;8.052;2023-03-01T01:01:40;9.43;;;4.03;;
31482;SDS011;18103;52.246;8.052;2023-03-01T01:04:07;9.63;;;3.87;;
31482;SDS011;18103;52.246;8.052;2023-03-01T01:06:39;10.73;;;4.85;;
31482;SDS011;18103;52.246;8.052;2023-03-01T01:09:07;10.35;;;4.43;;
31482;SDS011;18103;52.246;8.052;2023-03-01T01:11:34;9.98;;;4.28;;
31482;SDS011;18103;52.246;8.052;2023-03-01T01:14:01;10.32;;;4.38;;
31482;SDS011;18103;52.246;8.052;2023-03-01T01:16:28;13.65;;;4.57;;
31482;SDS011;18103;52.246;8.052;2023-03-01T01:18:54;11.10;;;4.18;;
31482;SDS011;18103;52.246;8.052;2023-03-01T01:21:21;6.80;;;3.78;;
31482;SDS011;18103;52.246;8.052;2023-03-01T01:23:49;8.65;;;4.25;;
31482;SDS011;18103;52.246;8.052;2023-03-01T01:26:16;10.73;;;4.03;;
31482;SDS011;18103;52.246;8.052;2023-03-01T01:28:49;9.18;;;3.97;;
31482;SDS011;18103;52.246;8.052;2023-03-01T01:31:15;12.43;;;4.95;;
31482;SDS011;18103;52.246;8.052;2023-03-01T01:33:41;14.40;;;4.60;;
31482;SDS011;18103;52.246;8.052;2023-03-01T01:36:07;5.27;;;4.23;;
31482;SDS011;18103;52.246;8.052;2023-03-01T01:38:33;9.18;;;4.25;;
31482;SDS011;18103;52.246;8.052;2023-03-01T01:41:01;10.75;;;4.68;;
31482;SDS011;18103;52.246;8.052;2023-03-01T01:43:30;10.57;;;4.20;;
31482;SDS011;18103;52.246;8.052;2023-03-01T01:46:02;6.10;;;3.97;;
31482;SDS011;18103;52.246;8.052;2023-03-01T01:48:54;9.88;;;5.43;;
31482;SDS011;18103;52.246;8.052;2023-03-01T01:51:30;13.27;;;4.78;;
31482;SDS011;18103;52.246;8.052;2023-03-01T01:54:03;9.98;;;4.35;;
31482;SDS011;18103;52.246;8.052;2023-03-01T01:56:33;10.32;;;4.93;;
31482;SDS011;18103;52.246;8.052;2023-03-01T01:59:02;10.30;;;4.25;;
31482;SDS011;18103;52.246;8.052;2023-03-01T02:01:27;7.40;;;4.63;;
31482;SDS011;18103;52.246;8.052;2023-03-01T02:03:53;9.47;;;5.10;;
31482;SDS011;18103;52.246;8.052;2023-03-01T02:06:22;9.43;;;3.57;;
31482;SDS011;18103;52.246;8.052;2023-03-01T02:08:54;9.13;;;3.90;;
31482;SDS011;18103;52.246;8.052;2023-03-01T02:11:22;5.63;;;3.47;;
31482;SDS011;18103;52.246;8.052;2023-03-01T02:13:48;10.20;;;3.70;;
31482;SDS011;18103;52.246;8.052;2023-03-01T02:16:15;8.35;;;4.28;;
31482;SDS011;18103;52.246;8.052;2023-03-01T02:18:41;6.65;;;3.65;;
31482;SDS011;18103;52.246;8.052;2023-03-01T02:21:27;6.43;;;3.88;;
31482;SDS011;18103;52.246;8.052;2023-03-01T02:24:08;6.88;;;4.13;;
31482;SDS011;18103;52.246;8.052;2023-03-01T02:26:40;7.65;;;4.88;;
31482;SDS011;18103;52.246;8.052;2023-03-01T02:29:09;7.32;;;4.32;;
31482;SDS011;18103;52.246;8.052;2023-03-01T02:31:35;10.30;;;4.70;;
31482;SDS011;18103;52.246;8.052;2023-03-01T02:34:07;8.45;;;4.50;;
31482;SDS011;18103;52.246;8.052;2023-03-01T02:36:37;7.78;;;4.28;;
31482;SDS011;18103;52.246;8.052;2023-03-01T02:39:10;9.88;;;4.15;;
31482;SDS011;18103;52.246;8.052;2023-03-01T02:41:42;9.10;;;4.10;;
31482;SDS011;18103;52.246;8.052;2023-03-01T02:44:14;8.15;;;4.18;;
31482;SDS011;18103;52.246;8.052;2023-03-01T02:46:44;7.80;;;4.27;;
31482;SDS011;18103;52.246;8.052;2023-03-01T02:49:19;6.65;;;3.75;;
31482;SDS011;18103;52.246;8.052;2023-03-01T02:54:42;9.85;;;4.72;;
31482;SDS011;18103;52.246;8.052;2023-03-01T02:57:13;6.25;;;3.92;;
31482;SDS011;18103;52.246;8.052;2023-03-01T02:59:39;6.53;;;4.43;;
31482;SDS011;18103;52.246;8.052;2023-03-01T03:02:08;6.70;;;4.55;;
31482;SDS011;18103;52.246;8.052;2023-03-01T03:04:45;5.97;;;4.10;;
31482;SDS011;18103;52.246;8.052;2023-03-01T03:07:11;6.10;;;3.55;;
31482;SDS011;18103;52.246;8.052;2023-03-01T03:09:37;8.70;;;4.33;;
31482;SDS011;18103;52.246;8.052;2023-03-01T03:12:02;7.33;;;3.73;;
31482;SDS011;18103;52.246;8.052;2023-03-01T03:14:28;5.97;;;3.43;;
31482;SDS011;18103;52.246;8.052;2023-03-01T03:16:53;5.03;;;3.63;;
31482;SDS011;18103;52.246;8.052;2023-03-01T03:19:18;5.80;;;3.90;;
31482;SDS011;18103;52.246;8.052;2023-03-01T03:21:44;7.57;;;3.38;;
31482;SDS011;18103;52.246;8.052;2023-03-01T03:24:10;5.40;;;3.40;;
31482;SDS011;18103;52.246;8.052;2023-03-01T03:26:36;7.07;;;4.23;;
31482;SDS011;18103;52.246;8.052;2023-03-01T03:29:01;6.10;;;4.10;;
31482;SDS011;18103;52.246;8.052;2023-03-01T03:31:27;9.50;;;3.43;;
31482;SDS011;18103;52.246;8.052;2023-03-01T03:33:53;9.77;;;4.63;;
31482;SDS011;18103;52.246;8.052;2023-03-01T03:36:19;8.10;;;3.17;;
31482;SDS011;18103;52.246;8.052;2023-03-01T03:38:47;9.65;;;4.25;;
31482;SDS011;18103;52.246;8.052;2023-03-01T03:41:13;7.03;;;4.05;;
31482;SDS011;18103;52.246;8.052;2023-03-01T03:43:40;7.22;;;3.65;;
31482;SDS011;18103;52.246;8.052;2023-03-01T03:46:08;5.82;;;3.35;;
31482;SDS011;18103;52.246;8.052;2023-03-01T03:48:41;6.32;;;3.70;;
31482;SDS011;18103;52.246;8.052;2023-03-01T03:51:15;9.68;;;3.75;;
31482;SDS011;18103;52.246;8.052;2023-03-01T03:53:42;11.77;;;4.75;;
31482;SDS011;18103;52.246;8.052;2023-03-01T03:56:08;11.15;;;4.15;;
31482;SDS011;18103;52.246;8.052;2023-03-01T03:58:35;7.85;;;3.63;;
31482;SDS011;18103;52.246;8.052;2023-03-01T04:01:01;5.93;;;3.90;;
31482;SDS011;18103;52.246;8.052;2023-03-01T04:03:27;7.10;;;4.00;;
31482;SDS011;18103;52.246;8.052;2023-03-01T04:05:56;7.32;;;4.03;;
31482;SDS011;18103;52.246;8.052;2023-03-01T04:08:22;9.27;;;4.38;;
31482;SDS011;18103;52.246;8.052;2023-03-01T04:10:49;6.83;;;3.43;;
31482;SDS011;18103;52.246;8.052;2023-03-01T04:13:17;14.48;;;3.85;;
31482;SDS011;18103;52.246;8.052;2023-03-01T04:15:45;7.20;;;3.58;;
31482;SDS011;18103;52.246;8.052;2023-03-01T04:18:15;6.90;;;4.78;;
31482;SDS011;18103;52.246;8.052;2023-03-01T04:20:42;10.52;;;3.72;;
31482;SDS011;18103;52.246;8.052;2023-03-01T04:23:11;8.35;;;3.72;;
31482;SDS011;18103;52.246;8.052;2023-03-01T04:25:51;6.95;;;4.03;;
31482;SDS011;18103;52.246;8.052;2023-03-01T04:28:20;8.48;;;3.65;;
31482;SDS011;18103;52.246;8.052;2023-03-01T04:30:49;8.55;;;3.78;;
31482;SDS011;18103;52.246;8.052;2023-03-01T04:33:15;9.13;;;3.73;;
31482;SDS011;18103;52.246;8.052;2023-03-01T04:35:40;5.73;;;3.73;;
31482;SDS011;18103;52.246;8.052;2023-03-01T04:38:06;10.90;;;4.43;;
31482;SDS011;18103;52.246;8.052;2023-03-01T04:40:31;5.47;;;3.90;;
31482;SDS011;18103;52.246;8.052;2023-03-01T04:42:57;7.27;;;3.63;;
31482;SDS011;18103;52.246;8.052;2023-03-01T04:45:22;11.90;;;3.83;;
31482;SDS011;18103;52.246;8.052;2023-03-01T04:47:48;5.40;;;4.03;;
31482;SDS011;18103;52.246;8.052;2023-03-01T04:50:15;7.60;;;3.97;;
31482;SDS011;18103;52.246;8.052;2023-03-01T04:52:45;9.27;;;4.15;;
31482;SDS011;18103;52.246;8.052;2023-03-01T04:55:11;8.38;;;4.97;;
31482;SDS011;18103;52.246;8.052;2023-03-01T04:57:37;7.17;;;4.07;;
31482;SDS011;18103;52.246;8.052;2023-03-01T05:00:03;10.80;;;4.03;;
31482;SDS011;18103;52.246;8.052;2023-03-01T05:02:49;6.75;;;3.88;;
31482;SDS011;18103;52.246;8.052;2023-03-01T05:07:50;5.85;;;3.50;;
31482;SDS011;18103;52.246;8.052;2023-03-01T05:10:16;9.45;;;4.03;;
31482;SDS011;18103;52.246;8.052;2023-03-01T05:12:42;7.50;;;4.10;;
31482;SDS011;18103;52.246;8.052;2023-03-01T05:15:07;8.50;;;4.37;;
31482;SDS011;18103;52.246;8.052;2023-03-01T05:17:33;9.33;;;3.90;;
31482;SDS011;18103;52.246;8.052;2023-03-01T05:19:59;10.68;;;4.25;;
31482;SDS011;18103;52.246;8.052;2023-03-01T05:22:25;10.13;;;3.55;;
31482;SDS011;18103;52.246;8.052;2023-03-01T05:24:51;5.73;;;3.60;;
31482;SDS011;18103;52.246;8.052;2023-03-01T05:27:19;9.25;;;4.22;;
31482;SDS011;18103;52.246;8.052;2023-03-01T05:29:47;15.07;;;4.05;;
31482;SDS011;18103;52.246;8.052;2023-03-01T05:32:12;10.30;;;3.90;;
31482;SDS011;18103;52.246;8.052;2023-03-01T05:34:40;7.90;;;4.15;;
31482;SDS011;18103;52.246;8.052;2023-03-01T05:37:06;14.10;;;4.00;;
31482;SDS011;18103;52.246;8.052;2023-03-01T05:39:32;4.90;;;3.27;;
31482;SDS011;18103;52.246;8.052;2023-03-01T05:41:59;10.33;;;4.50;;
31482;SDS011;18103;52.246;8.052;2023-03-01T05:44:26;6.82;;;3.58;;
31482;SDS011;18103;52.246;8.052;2023-03-01T05:46:53;13.38;;;4.63;;
31482;SDS011;18103;52.246;8.052;2023-03-01T05:49:19;16.30;;;4.30;;
31482;SDS011;18103;52.246;8.052;2023-03-01T05:51:48;5.33;;;3.50;;
31482;SDS011;18103;52.246;8.052;2023-03-01T05:54:16;12.25;;;4.43;;
31482;SDS011;18103;52.246;8.052;2023-03-01T05:56:42;6.78;;;4.20;;
31482;SDS011;18103;52.246;8.052;2023-03-01T05:59:08;7.22;;;4.00;;
31482;SDS011;18103;52.246;8.052;2023-03-01T06:01:34;11.33;;;4.83;;
31482;SDS011;18103;52.246;8.052;2023-03-01T06:04:00;7.80;;;3.90;;
31482;SDS011;18103;52.246;8.052;2023-03-01T06:06:26;11.10;;;4.22;;
31482;SDS011;18103;52.246;8.052;2023-03-01T06:08:52;7.17;;;3.90;;
31482;SDS011;18103;52.246;8.052;2023-03-01T06:11:18;6.90;;;3.53;;
31482;SDS011;18103;52.246;8.052;2023-03-01T06:13:44;6.13;;;3.85;;
31482;SDS011;18103;52.246;8.052;2023-03-01T06:16:10;8.13;;;4.60;;
31482;SDS011;18103;52.246;8.052;2023-03-01T06:18:36;6.60;;;3.60;;
31482;SDS011;18103;52.246;8.052;2023-03-01T06:21:02;7.70;;;3.63;;
31482;SDS011;18103;52.246;8.052;2023-03-01T06:23:29;7.75;;;4.38;;
31482;SDS011;18103;52.246;8.052;2023-03-01T06:25:54;8.17;;;5.03;;
31482;SDS011;18103;52.246;8.052;2023-03-01T06:28:20;8.27;;;5.30;;
31482;SDS011;18103;52.246;8.052;2023-03-01T06:30:45;10.40;;;4.80;;
31482;SDS011;18103;52.246;8.052;2023-03-01T06:33:11;11.37;;;4.30;;
31482;SDS011;18103;52.246;8.052;2023-03-01T06:35:36;7.00;;;4.57;;
31482;SDS011;18103;52.246;8.052;2023-03-01T06:38:02;14.70;;;4.23;;
31482;SDS011;18103;52.246;8.052;2023-03-01T06:40:29;9.10;;;4.05;;
31482;SDS011;18103;52.246;8.052;2023-03-01T06:42:56;8.25;;;3.83;;
31482;SDS011;18103;52.246;8.052;2023-03-01T06:45:22;9.43;;;4.35;;
31482;SDS011;18103;52.246;8.052;2023-03-01T06:47:47;6.20;;;3.80;;
31482;SDS011;18103;52.246;8.052;2023-03-01T06:50:13;12.40;;;4.90;;
31482;SDS011;18103;52.246;8.052;2023-03-01T06:52:39;10.30;;;5.53;;
31482;SDS011;18103;52.246;8.052;2023-03-01T06:55:05;12.30;;;5.43;;
31482;SDS011;18103;52.246;8.052;2023-03-01T06:57:31;15.18;;;6.32;;
31482;SDS011;18103;52.246;8.052;2023-03-01T06:59:56;9.70;;;4.53;;
31482;SDS011;18103;52.246;8.052;2023-03-01T07:02:22;8.27;;;5.37;;
31482;SDS011;18103;52.246;8.052;2023-03-01T07:04:51;15.20;;;5.03;;
31482;SDS011;18103;52.246;8.052;2023-03-01T07:07:17;13.43;;;6.20;;
31482;SDS011;18103;52.246;8.052;2023-03-01T07:09:43;12.03;;;6.20;;
31482;SDS011;18103;52.246;8.052;2023-03-01T07:12:09;11.27;;;5.68;;
31482;SDS011;18103;52.246;8.052;2023-03-01T07:14:35;14.60;;;7.50;;
31482;SDS011;18103;52.246;8.052;2023-03-01T07:17:00;18.27;;;6.53;;
31482;SDS011;18103;52.246;8.052;2023-03-01T07:19:26;13.87;;;6.43;;
31482;SDS011;18103;52.246;8.052;2023-03-01T07:21:51;13.97;;;5.87;;
31482;SDS011;18103;52.246;8.052;2023-03-01T07:24:16;15.50;;;5.20;;
31482;SDS011;18103;52.246;8.052;2023-03-01T07:26:42;14.27;;;6.13;;
31482;SDS011;18103;52.246;8.052;2023-03-01T07:29:07;13.67;;;6.97;;
31482;SDS011;18103;52.246;8.052;2023-03-01T07:31:35;11.93;;;7.03;;
31482;SDS011;18103;52.246;8.052;2023-03-01T07:34:01;13.65;;;5.85;;
31482;SDS011;18103;52.246;8.052;2023-03-01T07:36:27;10.47;;;5.60;;
31482;SDS011;18103;52.246;8.052;2023-03-01T07:38:52;7.70;;;5.40;;
31482;SDS011;18103;52.246;8.052;2023-03-01T07:41:20;11.57;;;5.90;;
31482;SDS011;18103;52.246;8.052;2023-03-01T07:43:46;7.60;;;4.20;;
31482;SDS011;18103;52.246;8.052;2023-03-01T07:46:11;15.97;;;5.60;;
31482;SDS011;18103;52.246;8.052;2023-03-01T07:48:37;15.40;;;6.00;;
31482;SDS011;18103;52.246;8.052;2023-03-01T07:51:03;12.10;;;6.10;;
31482;SDS011;18103;52.246;8.052;2023-03-01T07:53:30;14.75;;;5.50;;
31482;SDS011;18103;52.246;8.052;2023-03-01T07:56:07;11.50;;;6.60;;
31482;SDS011;18103;52.246;8.052;2023-03-01T07:58:35;12.30;;;5.90;;
31482;SDS011;18103;52.246;8.052;2023-03-01T08:01:02;9.25;;;4.88;;
31482;SDS011;18103;52.246;8.052;2023-03-01T08:03:28;9.40;;;5.30;;
31482;SDS011;18103;52.246;8.052;2023-03-01T08:05:54;16.80;;;5.23;;
31482;SDS011;18103;52.246;8.052;2023-03-01T08:08:19;12.77;;;6.27;;
31482;SDS011;18103;52.246;8.052;2023-03-01T08:10:45;11.80;;;5.63;;
31482;SDS011;18103;52.246;8.052;2023-03-01T08:13:10;6.50;;;4.73;;
31482;SDS011;18103;52.246;8.052;2023-03-01T08:15:35;13.63;;;5.47;;
31482;SDS011;18103;52.246;8.052;2023-03-01T08:18:01;9.00;;;3.67;;
31482;SDS011;18103;52.246;8.052;2023-03-01T08:20:26;12.00;;;4.50;;
31482;SDS011;18103;52.246;8.052;2023-03-01T08:22:51;9.27;;;4.57;;
31482;SDS011;18103;52.246;8.052;2023-03-01T08:25:17;9.47;;;5.00;;
31482;SDS011;18103;52.246;8.052;2023-03-01T08:27:42;7.83;;;5.27;;
31482;SDS011;18103;52.246;8.052;2023-03-01T08:30:08;9.60;;;4.40;;
31482;SDS011;18103;52.246;8.052;2023-03-01T08:32:37;12.17;;;5.73;;
31482;SDS011;18103;52.246;8.052;2023-03-01T08:35:03;4.20;;;2.60;;
31482;SDS011;18103;52.246;8.052;2023-03-01T08:37:29;8.57;;;4.53;;
31482;SDS011;18103;52.246;8.052;2023-03-01T08:39:58;12.97;;;4.90;;
31482;SDS011;18103;52.246;8.052;2023-03-01T08:42:24;7.33;;;3.73;;
31482;SDS011;18103;52.246;8.052;2023-03-01T08:44:50;9.13;;;5.13;;
31482;SDS011;18103;52.246;8.052;2023-03-01T08:47:16;10.40;;;5.13;;
31482;SDS011;18103;52.246;8.052;2023-03-01T08:49:41;8.10;;;4.50;;
31482;SDS011;18103;52.246;8.052;2023-03-01T08:52:06;10.93;;;6.03;;
31482;SDS011;18103;52.246;8.052;2023-03-01T08:54:32;15.20;;;5.73;;
31482;SDS011;18103;52.246;8.052;2023-03-01T08:56:57;8.40;;;4.43;;
31482;SDS011;18103;52.246;8.052;2023-03-01T08:59:24;6.77;;;4.63;;
31482;SDS011;18103;52.246;8.052;2023-03-01T09:01:50;10.03;;;4.17;;
31482;SDS011;18103;52.246;8.052;2023-03-01T09:04:15;8.57;;;4.00;;
31482;SDS011;18103;52.246;8.052;2023-03-01T09:06:41;13.87;;;4.37;;
31482;SDS011;18103;52.246;8.052;2023-03-01T09:09:11;12.07;;;5.10;;
31482;SDS011;18103;52.246;8.052;2023-03-01T09:11:40;8.73;;;4.37;;
31482;SDS011;18103;52.246;8.052;2023-03-01T09:14:05;8.97;;;4.60;;
31482;SDS011;18103;52.246;8.052;2023-03-01T09:16:31;9.17;;;4.10;;
31482;SDS011;18103;52.246;8.052;2023-03-01T09:19:00;11.27;;;4.07;;
31482;SDS011;18103;52.246;8.052;2023-03-01T09:21:27;10.00;;;4.80;;
31482;SDS011;18103;52.246;8.052;2023-03-01T09:23:52;7.73;;;4.57;;
31482;SDS011;18103;52.246;8.052;2023-03-01T09:26:18;10.30;;;4.80;;
31482;SDS011;18103;52.246;8.052;2023-03-01T09:28:47;8.67;;;4.83;;
31482;SDS011;18103;52.246;8.052;2023-03-01T09:31:13;9.80;;;4.77;;
31482;SDS011;18103;52.246;8.052;2023-03-01T09:33:40;4.77;;;3.00;;
31482;SDS011;18103;52.246;8.052;2023-03-01T09:36:07;9.70;;;4.77;;
31482;SDS011;18103;52.246;8.052;2023-03-01T09:38:35;11.80;;;3.97;;
31482;SDS011;18103;52.246;8.052;2023-03-01T09:41:01;7.13;;;3.83;;
31482;SDS011;18103;52.246;8.052;2023-03-01T09:43:43;8.20;;;4.00;;
31482;SDS011;18103;52.246;8.052;2023-03-01T09:46:12;8.03;;;3.10;;
31482;SDS011;18103;52.246;8.052;2023-03-01T09:48:50;8.33;;;3.13;;
31482;SDS011;18103;52.246;8.052;2023-03-01T09:51:29;9.27;;;3.70;;
31482;SDS011;18103;52.246;8.052;2023-03-01T09:53:57;5.13;;;3.37;;
31482;SDS011;18103;52.246;8.052;2023-03-01T09:58:59;9.87;;;3.53;;
31482;SDS011;18103;52.246;8.052;2023-03-01T10:01:44;10.30;;;2.97;;
31482;SDS011;18103;52.246;8.052;2023-03-01T10:10:16;7.10;;;3.30;;
31482;SDS011;18103;52.246;8.052;2023-03-01T10:12:51;7.07;;;3.47;;
31482;SDS011;18103;52.246;8.052;2023-03-01T10:15:19;6.73;;;3.23;;
31482;SDS011;18103;52.246;8.052;2023-03-01T10:23:07;6.53;;;2.80;;
31482;SDS011;18103;52.246;8.052;2023-03-01T10:28:02;4.00;;;2.30;;
31482;SDS011;18103;52.246;8.052;2023-03-01T10:30:35;5.43;;;3.30;;
31482;SDS011;18103;52.246;8.052;2023-03-01T10:33:26;5.63;;;3.10;;
31482;SDS011;18103;52.246;8.052;2023-03-01T10:35:56;9.20;;;3.53;;
31482;SDS011;18103;52.246;8.052;2023-03-01T10:38:21;6.07;;;2.47;;
31482;SDS011;18103;52.246;8.052;2023-03-01T10:43:26;4.53;;;2.73;;
31482;SDS011;18103;52.246;8.052;2023-03-01T10:45:57;5.77;;;2.77;;
31482;SDS011;18103;52.246;8.052;2023-03-01T10:48:23;5.17;;;2.80;;
31482;SDS011;18103;52.246;8.052;2023-03-01T10:55:56;4.80;;;3.50;;
31482;SDS011;18103;52.246;8.052;2023-03-01T10:58:28;6.40;;;2.80;;
31482;SDS011;18103;52.246;8.052;2023-03-01T11:00:57;6.17;;;2.80;;
31482;SDS011;18103;52.246;8.052;2023-03-01T11:03:37;7.57;;;3.70;;
31482;SDS011;18103;52.246;8.052;2023-03-01T11:06:05;6.77;;;3.53;;
31482;SDS011;18103;52.246;8.052;2023-03-01T11:08:46;5.23;;;3.27;;
31482;SDS011;18103;52.246;8.052;2023-03-01T11:13:46;4.23;;;2.30;;
31482;SDS011;18103;52.246;8.052;2023-03-01T11:16:17;6.33;;;3.30;;
31482;SDS011;18103;52.246;8.052;2023-03-01T11:19:00;11.57;;;3.47;;
31482;SDS011;18103;52.246;8.052;2023-03-01T11:21:43;10.03;;;3.60;;
31482;SDS011;18103;52.246;8.052;2023-03-01T11:24:09;6.33;;;3.43;;
31482;SDS011;18103;52.246;8.052;2023-03-01T11:26:40;10.43;;;4.40;;
31482;SDS011;18103;52.246;8.052;2023-03-01T11:29:17;10.40;;;4.73;;
31482;SDS011;18103;52.246;8.052;2023-03-01T11:31:51;11.17;;;4.40;;
31482;SDS011;18103;52.246;8.052;2023-03-01T11:34:23;8.50;;;4.13;;
31482;SDS011;18103;52.246;8.052;2023-03-01T11:37:01;8.43;;;4.03;;
31482;SDS011;18103;52.246;8.052;2023-03-01T11:39:43;9.27;;;4.40;;
31482;SDS011;18103;52.246;8.052;2023-03-01T11:45:17;5.43;;;3.10;;
31482;SDS011;18103;52.246;8.052;2023-03-01T12:01:26;5.60;;;2.67;;
31482;SDS011;18103;52.246;8.052;2023-03-01T12:07:15;4.43;;;2.60;;
31482;SDS011;18103;52.246;8.052;2023-03-01T12:15:43;9.67;;;3.23;;
31482;SDS011;18103;52.246;8.052;2023-03-01T12:18:43;10.00;;;3.13;;
31482;SDS011;18103;52.246;8.052;2023-03-01T12:21:39;4.77;;;2.53;;
31482;SDS011;18103;52.246;8.052;2023-03-01T12:24:14;4.57;;;2.50;;
31482;SDS011;18103;52.246;8.052;2023-03-01T12:26:53;5.23;;;2.90;;
31482;SDS011;18103;52.246;8.052;2023-03-01T12:29:30;7.97;;;3.70;;
31482;SDS011;18103;52.246;8.052;2023-03-01T12:32:25;5.67;;;3.10;;
31482;SDS011;18103;52.246;8.052;2023-03-01T12:38:41;6.17;;;2.83;;
31482;SDS011;18103;52.246;8.052;2023-03-01T12:49:16;6.70;;;2.73;;
31482;SDS011;18103;52.246;8.052;2023-03-01T12:51:56;9.13;;;2.73;;
31482;SDS011;18103;52.246;8.052;2023-03-01T12:54:28;4.53;;;2.63;;
31482;SDS011;18103;52.246;8.052;2023-03-01T12:56:57;4.83;;;2.23;;
31482;SDS011;18103;52.246;8.052;2023-03-01T13:02:15;5.27;;;3.00;;
31482;SDS011;18103;52.246;8.052;2023-03-01T13:10:43;5.73;;;2.97;;
31482;SDS011;18103;52.246;8.052;2023-03-01T13:13:20;4.90;;;3.13;;
31482;SDS011;18103;52.246;8.052;2023-03-01T13:15:48;4.53;;;2.20;;
31482;SDS011;18103;52.246;8.052;2023-03-01T13:31:56;6.10;;;2.40;;
31482;SDS011;18103;52.246;8.052;2023-03-01T13:33:55;5.40;;;2.20;;
31482;SDS011;18103;52.246;8.052;2023-03-01T13:52:37;5.13;;;2.57;;
31482;SDS011;18103;52.246;8.052;2023-03-01T13:55:51;5.10;;;2.60;;
31482;SDS011;18103;52.246;8.052;2023-03-01T14:00:58;5.73;;;2.47;;
31482;SDS011;18103;52.246;8.052;2023-03-01T14:03:32;6.27;;;3.00;;
31482;SDS011;18103;52.246;8.052;2023-03-01T14:08:37;4.57;;;2.33;;
31482;SDS011;18103;52.246;8.052;2023-03-01T14:19:42;7.83;;;2.43;;
31482;SDS011;18103;52.246;8.052;2023-03-01T14:25:16;3.57;;;1.70;;
31482;SDS011;18103;52.246;8.052;2023-03-01T14:27:45;3.47;;;1.97;;
31482;SDS011;18103;52.246;8.052;2023-03-01T14:30:19;2.67;;;1.60;;
31482;SDS011;18103;52.246;8.052;2023-03-01T14:33:17;3.30;;;1.93;;
31482;SDS011;18103;52.246;8.052;2023-03-01T14:36:13;3.20;;;1.93;;
31482;SDS011;18103;52.246;8.052;2023-03-01T14:38:39;4.97;;;2.40;;
31482;SDS011;18103;52.246;8.052;2023-03-01T14:41:16;7.37;;;1.83;;
31482;SDS011;18103;52.246;8.052;2023-03-01T14:43:47;6.87;;;1.90;;
31482;SDS011;18103;52.246;8.052;2023-03-01T14:48:44;10.37;;;2.27;;
31482;SDS011;18103;52.246;8.052;2023-03-01T14:51:09;3.50;;;2.20;;
31482;SDS011;18103;52.246;8.052;2023-03-01T14:53:37;6.60;;;2.57;;
31482;SDS011;18103;52.246;8.052;2023-03-01T14:56:02;4.53;;;2.30;;
31482;SDS011;18103;52.246;8.052;2023-03-01T14:58:28;5.57;;;1.90;;
31482;SDS011;18103;52.246;8.052;2023-03-01T15:00:57;3.53;;;2.20;;
31482;SDS011;18103;52.246;8.052;2023-03-01T15:06:06;3.60;;;1.83;;
31482;SDS011;18103;52.246;8.052;2023-03-01T15:08:33;9.63;;;2.50;;
31482;SDS011;18103;52.246;8.052;2023-03-01T15:13:34;3.20;;;2.03;;
31482;SDS011;18103;52.246;8.052;2023-03-01T15:16:01;4.00;;;2.20;;
31482;SDS011;18103;52.246;8.052;2023-03-01T15:18:27;4.03;;;2.17;;
31482;SDS011;18103;52.246;8.052;2023-03-01T15:20:54;2.10;;;1.80;;
31482;SDS011;18103;52.246;8.052;2023-03-01T15:23:23;3.47;;;1.90;;
31482;SDS011;18103;52.246;8.052;2023-03-01T15:25:51;4.73;;;1.83;;
31482;SDS011;18103;52.246;8.052;2023-03-01T15:28:28;4.43;;;1.90;;
31482;SDS011;18103;52.246;8.052;2023-03-01T15:31:01;4.67;;;1.77;;
31482;SDS011;18103;52.246;8.052;2023-03-01T15:33:41;3.93;;;1.87;;
31482;SDS011;18103;52.246;8.052;2023-03-01T15:38:59;2.70;;;1.63;;
31482;SDS011;18103;52.246;8.052;2023-03-01T15:43:50;3.53;;;1.77;;
31482;SDS011;18103;52.246;8.052;2023-03-01T15:48:53;3.97;;;2.00;;
31482;SDS011;18103;52.246;8.052;2023-03-01T15:51:31;4.67;;;1.90;;
31482;SDS011;18103;52.246;8.052;2023-03-01T15:53:59;4.60;;;2.17;;
31482;SDS011;18103;52.246;8.052;2023-03-01T15:56:27;3.07;;;1.70;;
31482;SDS011;18103;52.246;8.052;2023-03-01T15:58:53;2.10;;;1.47;;
31482;SDS011;18103;52.246;8.052;2023-03-01T16:01:23;2.97;;;1.63;;
31482;SDS011;18103;52.246;8.052;2023-03-01T16:03:48;2.47;;;1.63;;
31482;SDS011;18103;52.246;8.052;2023-03-01T16:06:14;5.90;;;2.00;;
31482;SDS011;18103;52.246;8.052;2023-03-01T16:08:39;1.53;;;1.10;;
31482;SDS011;18103;52.246;8.052;2023-03-01T16:11:09;3.37;;;1.93;;
31482;SDS011;18103;52.246;8.052;2023-03-01T16:13:38;4.00;;;2.00;;
31482;SDS011;18103;52.246;8.052;2023-03-01T16:16:04;3.40;;;2.20;;
31482;SDS011;18103;52.246;8.052;2023-03-01T16:18:29;7.03;;;2.50;;
31482;SDS011;18103;52.246;8.052;2023-03-01T16:20:55;3.43;;;1.90;;
31482;SDS011;18103;52.246;8.052;2023-03-01T16:23:20;8.97;;;2.47;;
31482;SDS011;18103;52.246;8.052;2023-03-01T16:25:49;3.63;;;1.70;;
31482;SDS011;18103;52.246;8.052;2023-03-01T16:28:15;3.30;;;2.07;;
31482;SDS011;18103;52.246;8.052;2023-03-01T16:30:45;3.87;;;2.10;;
31482;SDS011;18103;52.246;8.052;2023-03-01T16:33:12;4.57;;;2.00;;
31482;SDS011;18103;52.246;8.052;2023-03-01T16:35:41;6.73;;;2.53;;
31482;SDS011;18103;52.246;8.052;2023-03-01T16:38:08;6.20;;;1.90;;
31482;SDS011;18103;52.246;8.052;2023-03-01T16:40:33;3.77;;;1.87;;
31482;SDS011;18103;52.246;8.052;2023-03-01T16:42:59;6.87;;;2.70;;
31482;SDS011;18103;52.246;8.052;2023-03-01T16:45:26;7.30;;;2.90;;
31482;SDS011;18103;52.246;8.052;2023-03-01T16:47:57;4.60;;;2.30;;
31482;SDS011;18103;52.246;8.052;2023-03-01T16:50:23;4.33;;;2.30;;
31482;SDS011;18103;52.246;8.052;2023-03-01T16:52:49;7.67;;;2.50;;
31482;SDS011;18103;52.246;8.052;2023-03-01T16:55:16;4.93;;;2.37;;
31482;SDS011;18103;52.246;8.052;2023-03-01T16:57:41;5.97;;;2.43;;
31482;SDS011;18103;52.246;8.052;2023-03-01T17:00:08;7.37;;;2.63;;
31482;SDS011;18103;52.246;8.052;2023-03-01T17:02:35;8.00;;;2.90;;
31482;SDS011;18103;52.246;8.052;2023-03-01T17:05:01;9.70;;;3.10;;
31482;SDS011;18103;52.246;8.052;2023-03-01T17:07:28;7.07;;;3.33;;
31482;SDS011;18103;52.246;8.052;2023-03-01T17:09:58;3.80;;;2.60;;
31482;SDS011;18103;52.246;8.052;2023-03-01T17:12:23;5.67;;;2.40;;